Time;durP1;ratioP1;P1;durP2;ratioP2;P2;SDS_P1;SDS_P2;PMS_P1;PMS_P2;Temp;Humidity;BMP_temperature;BMP_pressure;BME280_temperature;BME280_humidity;BME280_pressure;Samples;Min_cycle;Max_cycle;Signal;HPM_P1;HPM_P2
2023/01/26 00:00:58;;;;;;;44.15;17.58;;;0.20;99.90;;;;;;5073608;28;20078;-61
2023/01/26 00:03:27;;;;;;;40.50;16.88;;;0.20;99.90;;;;;;5081922;28;20154;-61
2023/01/26 00:05:53;;;;;;;45.58;17.77;;;0.20;99.90;;;;;;5072692;28;20044;-60
2023/01/26 00:08:18;;;;;;;42.05;17.73;;;0.20;99.90;;;;;;5074095;28;20054;-61
2023/01/26 00:10:49;;;;;;;47.92;18.02;;;0.20;99.90;;;;;;5072437;28;20119;-61
2023/01/26 00:13:21;;;;;;;46.40;18.00;;;0.20;99.90;;;;;;5064075;28;20040;-61
2023/01/26 00:15:47;;;;;;;42.88;16.55;;;0.30;99.90;;;;;;5072558;28;20036;-60
2023/01/26 00:18:14;;;;;;;49.97;18.42;;;0.20;99.90;;;;;;5091530;27;20644;-60
2023/01/26 00:20:39;;;;;;;39.90;16.02;;;0.20;99.90;;;;;;5071081;28;20239;-61
2023/01/26 00:23:05;;;;;;;45.63;17.65;;;0.20;99.90;;;;;;5072390;28;20047;-62
2023/01/26 00:25:31;;;;;;;48.08;17.73;;;0.30;99.90;;;;;;5070184;28;20052;-60
2023/01/26 00:27:57;;;;;;;48.13;17.98;;;0.30;99.90;;;;;;5070674;28;20093;-61
2023/01/26 00:30:23;;;;;;;51.45;18.98;;;0.30;99.90;;;;;;5072091;28;20040;-61
2023/01/26 00:32:49;;;;;;;46.60;18.73;;;0.30;99.90;;;;;;5055712;28;20098;-61
2023/01/26 00:35:14;;;;;;;47.35;18.05;;;0.30;99.90;;;;;;5072776;28;20050;-61
2023/01/26 00:37:41;;;;;;;47.63;18.00;;;0.30;99.90;;;;;;5067275;27;20057;-61
2023/01/26 00:40:08;;;;;;;42.55;18.17;;;0.30;99.90;;;;;;5069150;28;20044;-61
2023/01/26 00:42:34;;;;;;;47.28;18.60;;;0.30;99.90;;;;;;5069718;28;20043;-61
2023/01/26 00:44:59;;;;;;;48.83;18.90;;;0.30;99.90;;;;;;5068142;28;20055;-62
2023/01/26 00:47:25;;;;;;;46.03;17.45;;;0.30;99.90;;;;;;5066427;28;20103;-60
2023/01/26 00:49:51;;;;;;;51.30;18.92;;;0.30;99.90;;;;;;5051981;28;20418;-61
2023/01/26 00:52:17;;;;;;;44.05;18.10;;;0.30;99.90;;;;;;5044416;28;20037;-61
2023/01/26 00:54:43;;;;;;;48.60;18.90;;;0.30;99.90;;;;;;5050292;28;20106;-61
2023/01/26 00:57:09;;;;;;;45.90;18.42;;;0.30;99.90;;;;;;5046964;28;20075;-61
2023/01/26 00:59:35;;;;;;;47.10;18.60;;;0.30;99.90;;;;;;5049880;28;20074;-61
2023/01/26 01:02:01;;;;;;;50.13;18.35;;;0.30;99.90;;;;;;5048004;28;20049;-61
2023/01/26 01:04:29;;;;;;;44.97;17.60;;;0.30;99.90;;;;;;5047900;28;20048;-60
2023/01/26 01:06:55;;;;;;;46.67;17.80;;;0.30;99.90;;;;;;5042800;28;20063;-61
2023/01/26 01:09:22;;;;;;;50.17;19.20;;;0.30;99.90;;;;;;5048794;28;20044;-60
2023/01/26 01:11:47;;;;;;;43.55;17.45;;;0.40;99.90;;;;;;5032818;28;20071;-61
2023/01/26 01:14:14;;;;;;;44.53;17.73;;;0.40;99.90;;;;;;5049146;28;20468;-61
2023/01/26 01:16:41;;;;;;;51.15;17.77;;;0.30;99.90;;;;;;5049317;28;20045;-61
2023/01/26 01:19:07;;;;;;;45.58;18.60;;;0.40;99.90;;;;;;5058002;28;20048;-60
2023/01/26 01:21:33;;;;;;;46.53;18.35;;;0.40;99.90;;;;;;5048253;28;20047;-60
2023/01/26 01:23:59;;;;;;;41.33;17.35;;;0.40;99.90;;;;;;5049792;28;20414;-61
2023/01/26 01:26:26;;;;;;;41.17;17.42;;;0.40;99.90;;;;;;5038087;28;20053;-61
2023/01/26 01:28:54;;;;;;;42.08;17.10;;;0.50;99.90;;;;;;5049946;28;20053;-60
2023/01/26 01:31:21;;;;;;;42.13;17.00;;;0.40;99.90;;;;;;5051144;28;20081;-61
2023/01/26 01:33:47;;;;;;;44.03;16.67;;;0.40;99.90;;;;;;5033688;28;20076;-61
2023/01/26 01:36:15;;;;;;;40.65;16.90;;;0.40;99.90;;;;;;5047538;28;20542;-61
2023/01/26 01:38:43;;;;;;;47.55;16.83;;;0.40;99.90;;;;;;5049989;28;20041;-60
2023/01/26 01:41:09;;;;;;;40.60;16.48;;;0.50;99.90;;;;;;5035429;28;20049;-61
2023/01/26 01:43:36;;;;;;;41.50;16.63;;;0.40;99.90;;;;;;5053195;28;20045;-61
2023/01/26 01:46:20;;;;;;;44.58;16.83;;;0.40;99.90;;;;;;5048680;28;20048;-61
2023/01/26 01:48:56;;;;;;;38.10;15.68;;;0.50;99.90;;;;;;5062688;28;20593;-60
2023/01/26 01:51:54;;;;;;;42.08;16.75;;;0.40;99.90;;;;;;5077978;28;20056;-61
2023/01/26 01:54:29;;;;;;;43.03;16.35;;;0.40;99.90;;;;;;5065404;28;20075;-60
2023/01/26 01:56:59;;;;;;;40.25;15.35;;;0.50;99.90;;;;;;5065368;28;20041;-61
2023/01/26 01:59:25;;;;;;;41.58;16.27;;;0.40;99.90;;;;;;5071115;28;20044;-61
2023/01/26 02:01:52;;;;;;;37.25;15.77;;;0.50;99.90;;;;;;5045017;28;20039;-61
2023/01/26 02:04:20;;;;;;;41.97;16.48;;;0.50;99.90;;;;;;5048863;28;20532;-60
2023/01/26 02:06:52;;;;;;;37.47;14.65;;;0.50;99.90;;;;;;5064117;28;20496;-61
2023/01/26 02:12:11;;;;;;;34.70;15.18;;;0.50;99.90;;;;;;5062250;28;20045;-60
2023/01/26 02:14:38;;;;;;;37.35;14.45;;;0.50;99.90;;;;;;5067034;28;20051;-61
2023/01/26 02:17:04;;;;;;;34.20;14.23;;;0.50;99.90;;;;;;5047415;28;20685;-61
2023/01/26 02:19:49;;;;;;;35.10;14.38;;;0.50;99.90;;;;;;5054650;28;20049;-60
2023/01/26 02:22:41;;;;;;;40.83;14.82;;;0.50;99.90;;;;;;5067103;28;20414;-61
2023/01/26 02:25:18;;;;;;;35.65;14.88;;;0.50;99.90;;;;;;5060083;28;20057;-60
2023/01/26 02:27:44;;;;;;;35.22;14.73;;;0.50;99.90;;;;;;5068231;28;20047;-62
2023/01/26 02:30:12;;;;;;;37.08;14.98;;;0.50;99.90;;;;;;5066053;28;20061;-61
2023/01/26 02:32:38;;;;;;;38.60;15.00;;;0.50;99.90;;;;;;5065562;28;20078;-60
2023/01/26 02:35:04;;;;;;;40.22;16.20;;;0.50;99.90;;;;;;5069972;28;20036;-61
2023/01/26 02:37:30;;;;;;;35.13;15.82;;;0.50;99.90;;;;;;5070855;28;20152;-61
2023/01/26 02:40:12;;;;;;;42.15;15.15;;;0.60;99.90;;;;;;5076222;28;20047;-61
2023/01/26 02:42:40;;;;;;;36.20;15.60;;;0.60;99.90;;;;;;5073025;28;20044;-62
2023/01/26 02:45:08;;;;;;;43.55;16.40;;;0.50;99.90;;;;;;5070191;28;20044;-61
2023/01/26 02:47:34;;;;;;;37.80;15.70;;;0.60;99.90;;;;;;5065401;28;20059;-61
2023/01/26 02:50:00;;;;;;;47.20;16.58;;;0.60;99.90;;;;;;5051108;28;20079;-61
2023/01/26 02:52:29;;;;;;;38.67;16.30;;;0.60;99.90;;;;;;5035275;28;20147;-60
2023/01/26 02:57:40;;;;;;;41.15;16.83;;;0.60;99.90;;;;;;5049773;28;20482;-61
2023/01/26 03:00:09;;;;;;;44.55;16.42;;;0.60;99.90;;;;;;5059233;28;20061;-61
2023/01/26 03:02:34;;;;;;;45.53;16.38;;;0.60;99.90;;;;;;5048854;28;20118;-61
2023/01/26 03:05:00;;;;;;;40.42;15.57;;;0.70;99.90;;;;;;5048866;28;20178;-61
2023/01/26 03:07:27;;;;;;;41.88;16.77;;;0.60;99.90;;;;;;5041829;28;20049;-61
2023/01/26 03:09:53;;;;;;;46.45;16.42;;;0.60;99.90;;;;;;5048124;28;20045;-60
2023/01/26 03:12:18;;;;;;;42.80;16.67;;;0.60;99.90;;;;;;5031990;28;20055;-61
2023/01/26 03:14:44;;;;;;;41.47;16.17;;;0.70;99.90;;;;;;5051640;28;20565;-61
2023/01/26 03:17:10;;;;;;;44.63;16.95;;;0.70;99.90;;;;;;5032503;28;20041;-61
2023/01/26 03:27:49;;;;;;;41.63;17.45;;;0.70;99.90;;;;;;5036374;28;20052;-61
2023/01/26 03:30:17;;;;;;;42.55;16.30;;;0.70;99.90;;;;;;5047746;28;20101;-61
2023/01/26 03:32:43;;;;;;;43.10;16.02;;;0.70;99.90;;;;;;5050975;28;20230;-62
2023/01/26 03:35:13;;;;;;;45.78;16.83;;;0.70;99.90;;;;;;5048474;28;20060;-61
2023/01/26 03:37:42;;;;;;;42.78;16.70;;;0.70;99.90;;;;;;5025225;28;20486;-60
2023/01/26 03:56:37;;;;;;;43.70;17.25;;;1.00;99.90;;;;;;5048994;28;20119;-60
2023/01/26 03:59:08;;;;;;;43.83;16.65;;;1.20;99.90;;;;;;5030040;28;20045;-61
2023/01/26 04:01:39;;;;;;;45.33;17.05;;;0.90;99.90;;;;;;5042946;28;20523;-60
2023/01/26 04:09:38;;;;;;;40.60;16.52;;;0.90;99.90;;;;;;5048112;28;20047;-60
2023/01/26 04:12:05;;;;;;;47.97;17.45;;;0.90;99.90;;;;;;5048960;28;20052;-61
2023/01/26 04:22:44;;;;;;;43.42;16.23;;;1.00;99.90;;;;;;5046109;28;20057;-61
2023/01/26 04:25:13;;;;;;;49.78;18.80;;;1.00;99.90;;;;;;5052408;28;20135;-61
2023/01/26 04:27:40;;;;;;;70.78;19.08;;;1.00;99.90;;;;;;5048005;28;20063;-62
2023/01/26 04:30:08;;;;;;;54.75;19.13;;;1.00;99.90;;;;;;5051775;28;20040;-62
2023/01/26 04:32:34;;;;;;;48.72;17.48;;;1.00;99.90;;;;;;5047866;28;20044;-60
2023/01/26 04:35:00;;;;;;;45.70;17.85;;;1.00;99.90;;;;;;5051683;28;20045;-61
2023/01/26 04:37:26;;;;;;;50.55;19.02;;;1.10;99.90;;;;;;5028247;28;20055;-61
2023/01/26 04:39:52;;;;;;;52.63;18.83;;;1.00;99.90;;;;;;5049104;28;20070;-61
2023/01/26 04:42:18;;;;;;;52.03;18.05;;;1.00;99.90;;;;;;5033240;28;20049;-61
2023/01/26 04:44:44;;;;;;;56.25;17.50;;;1.10;99.90;;;;;;5039026;28;20169;-61
2023/01/26 04:47:09;;;;;;;58.85;19.58;;;1.10;99.90;;;;;;5035266;28;20406;-61
2023/01/26 04:49:35;;;;;;;62.00;20.05;;;1.10;99.90;;;;;;5074382;28;20056;-62
2023/01/26 04:52:01;;;;;;;54.03;19.52;;;1.10;99.90;;;;;;5089979;27;20040;-61
2023/01/26 04:54:27;;;;;;;59.97;19.98;;;1.20;99.90;;;;;;5071624;28;20036;-62
2023/01/26 04:56:53;;;;;;;56.75;18.58;;;1.10;99.90;;;;;;5072568;28;20062;-61
2023/01/26 04:59:18;;;;;;;57.50;20.50;;;1.20;99.90;;;;;;5090241;28;20040;-61
2023/01/26 05:01:44;;;;;;;49.83;18.90;;;1.20;99.90;;;;;;5072954;28;20529;-61
2023/01/26 05:04:11;;;;;;;49.25;18.75;;;1.20;99.90;;;;;;5072357;28;20059;-61
2023/01/26 05:06:38;;;;;;;61.83;19.42;;;1.30;99.90;;;;;;5071105;28;20043;-61
2023/01/26 05:09:04;;;;;;;63.00;20.55;;;1.20;99.90;;;;;;5083527;28;20508;-60
2023/01/26 05:11:30;;;;;;;55.67;19.65;;;1.30;99.90;;;;;;5070329;28;20481;-61
2023/01/26 05:13:56;;;;;;;48.92;18.13;;;1.30;99.90;;;;;;5073069;28;20054;-61
2023/01/26 05:16:22;;;;;;;61.65;20.40;;;1.30;99.90;;;;;;5082968;28;20043;-61
2023/01/26 05:18:48;;;;;;;60.72;19.15;;;1.40;99.90;;;;;;5072890;28;20124;-61
2023/01/26 05:21:14;;;;;;;62.10;18.83;;;1.40;99.90;;;;;;5075674;28;20094;-60
2023/01/26 05:23:39;;;;;;;70.82;21.02;;;1.40;99.90;;;;;;5091539;28;20044;-61
2023/01/26 05:26:05;;;;;;;88.90;22.23;;;1.40;99.90;;;;;;5083084;28;20051;-61
2023/01/26 05:28:32;;;;;;;78.38;22.25;;;1.40;99.90;;;;;;5072589;28;20185;-61
2023/01/26 05:30:58;;;;;;;68.82;20.00;;;1.50;99.90;;;;;;5089322;28;20128;-60
2023/01/26 05:33:24;;;;;;;62.83;19.35;;;1.50;99.90;;;;;;5092331;28;20119;-61
2023/01/26 05:35:51;;;;;;;77.53;21.35;;;1.60;99.90;;;;;;5059477;28;20581;-62
2023/01/26 05:38:18;;;;;;;71.45;19.02;;;1.60;99.90;;;;;;5074697;28;20067;-61
2023/01/26 05:40:44;;;;;;;80.63;19.90;;;1.70;99.90;;;;;;5071607;28;20047;-61
2023/01/26 05:43:11;;;;;;;72.88;19.90;;;1.80;99.90;;;;;;5073121;28;20051;-61
2023/01/26 05:45:38;;;;;;;91.03;20.60;;;1.90;99.90;;;;;;5087681;28;20097;-61
2023/01/26 05:48:04;;;;;;;87.35;19.00;;;1.90;99.90;;;;;;5092391;28;20052;-61
2023/01/26 05:50:30;;;;;;;93.55;19.80;;;2.00;99.90;;;;;;5069557;28;20043;-62
2023/01/26 05:52:56;;;;;;;80.10;18.75;;;2.00;99.90;;;;;;5073831;28;20104;-61
2023/01/26 05:55:22;;;;;;;85.15;17.50;;;2.10;99.90;;;;;;5092650;28;20035;-61
2023/01/26 05:57:48;;;;;;;80.60;17.38;;;2.10;99.90;;;;;;5066181;28;20052;-62
2023/01/26 06:00:14;;;;;;;96.68;17.50;;;2.10;99.90;;;;;;5068227;28;20044;-62
2023/01/26 06:02:40;;;;;;;86.95;17.88;;;2.20;99.90;;;;;;5075009;28;20118;-61
2023/01/26 06:05:07;;;;;;;115.35;18.38;;;2.30;99.90;;;;;;5073948;28;20056;-60
2023/01/26 06:07:33;;;;;;;106.85;17.98;;;2.30;99.90;;;;;;5056745;28;20157;-60
2023/01/26 06:09:59;;;;;;;89.38;17.85;;;2.40;99.90;;;;;;5061851;28;20077;-61
2023/01/26 06:12:30;;;;;;;85.10;16.75;;;2.40;99.90;;;;;;5074466;28;20047;-61
2023/01/26 06:14:57;;;;;;;80.03;17.45;;;2.50;99.90;;;;;;5064236;28;20058;-61
2023/01/26 06:17:23;;;;;;;87.63;17.23;;;2.50;99.90;;;;;;5069308;27;20040;-61
2023/01/26 06:19:48;;;;;;;97.13;18.17;;;2.50;99.90;;;;;;5068388;28;20070;-61
2023/01/26 06:22:14;;;;;;;76.78;17.27;;;2.50;99.90;;;;;;5063218;28;20055;-61
2023/01/26 06:24:40;;;;;;;88.63;16.98;;;2.40;99.90;;;;;;5077413;28;20075;-61
2023/01/26 06:27:11;;;;;;;91.25;17.75;;;2.50;99.90;;;;;;5072862;28;20044;-61
2023/01/26 06:29:37;;;;;;;94.38;17.83;;;2.50;99.90;;;;;;5058546;28;20073;-61
2023/01/26 06:32:02;;;;;;;78.30;17.27;;;2.50;99.90;;;;;;5059659;28;20521;-61
2023/01/26 06:34:28;;;;;;;89.05;18.33;;;2.60;99.90;;;;;;5065906;28;20068;-62
2023/01/26 06:36:55;;;;;;;81.07;17.33;;;2.60;99.90;;;;;;5069420;28;20135;-61
2023/01/26 06:39:21;;;;;;;75.53;16.13;;;2.70;99.90;;;;;;5059720;28;20135;-61
2023/01/26 06:41:46;;;;;;;92.22;17.98;;;2.60;99.90;;;;;;5055407;28;20122;-61
2023/01/26 06:44:12;;;;;;;82.25;16.05;;;2.60;99.90;;;;;;5068314;28;20039;-61
2023/01/26 06:46:38;;;;;;;80.72;16.08;;;2.60;99.90;;;;;;5073672;28;20132;-62
2023/01/26 06:49:04;;;;;;;72.15;14.70;;;2.60;99.90;;;;;;5072229;28;20048;-61
2023/01/26 06:51:51;;;;;;;81.97;16.15;;;2.60;99.90;;;;;;5091219;28;20044;-62
2023/01/26 06:54:17;;;;;;;57.88;13.60;;;2.60;99.90;;;;;;5074912;28;20482;-62
2023/01/26 06:56:43;;;;;;;71.45;14.98;;;2.60;99.90;;;;;;5074633;27;20184;-61
2023/01/26 06:59:09;;;;;;;68.25;15.07;;;2.50;99.90;;;;;;5080160;28;20124;-61
2023/01/26 07:01:46;;;;;;;97.18;15.60;;;2.60;99.90;;;;;;5063550;28;20044;-61
2023/01/26 07:04:12;;;;;;;79.82;13.68;;;2.50;99.90;;;;;;5074496;28;20129;-62
2023/01/26 07:06:37;;;;;;;64.22;12.35;;;2.40;99.90;;;;;;5049231;28;20052;-62
2023/01/26 07:09:04;;;;;;;49.58;11.40;;;2.40;99.90;;;;;;5070939;28;20051;-61
2023/01/26 07:11:31;;;;;;;62.97;11.48;;;2.50;99.90;;;;;;5063825;28;20116;-61
2023/01/26 07:13:57;;;;;;;53.42;10.90;;;2.40;99.90;;;;;;5067445;28;20097;-62
2023/01/26 07:16:23;;;;;;;40.70;9.75;;;2.50;99.90;;;;;;5074383;28;20039;-61
2023/01/26 07:18:49;;;;;;;44.97;8.15;;;2.50;99.90;;;;;;5080281;28;20150;-61
2023/01/26 07:21:17;;;;;;;51.35;7.47;;;2.50;99.90;;;;;;5076076;28;20051;-62
2023/01/26 07:23:44;;;;;;;40.25;6.25;;;2.50;99.90;;;;;;5076668;28;20040;-61
2023/01/26 07:26:10;;;;;;;39.92;5.57;;;2.50;99.90;;;;;;5096059;28;20112;-61
2023/01/26 07:28:36;;;;;;;54.80;6.22;;;2.50;99.90;;;;;;5067450;28;20489;-61
2023/01/26 07:31:04;;;;;;;42.60;6.20;;;2.50;99.90;;;;;;5069539;28;20085;-62
2023/01/26 07:33:31;;;;;;;42.88;5.70;;;2.50;99.90;;;;;;5075636;28;20048;-61
2023/01/26 07:35:58;;;;;;;43.13;5.68;;;2.50;99.90;;;;;;5071291;28;23726;-61
2023/01/26 07:38:25;;;;;;;59.22;6.65;;;2.50;99.90;;;;;;5081044;28;20105;-61
2023/01/26 07:40:51;;;;;;;49.90;5.53;;;2.50;99.90;;;;;;5073038;28;20062;-61
2023/01/26 07:43:17;;;;;;;43.13;4.97;;;2.60;99.90;;;;;;5073472;28;20044;-61
2023/01/26 07:45:48;;;;;;;49.88;6.07;;;2.60;99.90;;;;;;5071173;28;20044;-61
2023/01/26 07:48:14;;;;;;;56.10;5.78;;;2.60;99.90;;;;;;5076037;27;20083;-61
2023/01/26 07:50:40;;;;;;;43.63;5.00;;;2.60;99.90;;;;;;5057493;28;20036;-62
2023/01/26 07:53:08;;;;;;;40.10;5.03;;;2.60;99.90;;;;;;5068897;28;20070;-61
2023/01/26 07:55:34;;;;;;;47.72;5.93;;;2.70;99.90;;;;;;5078557;28;20137;-62
2023/01/26 07:58:00;;;;;;;46.03;5.05;;;2.70;99.90;;;;;;5083446;28;20054;-62
2023/01/26 08:00:26;;;;;;;58.58;5.10;;;2.70;99.90;;;;;;5050711;28;20044;-61
2023/01/26 08:02:52;;;;;;;46.35;5.15;;;2.70;99.90;;;;;;5072087;28;20824;-61
2023/01/26 08:05:17;;;;;;;48.78;4.75;;;2.70;99.90;;;;;;5076214;28;20056;-62
2023/01/26 08:07:43;;;;;;;34.67;4.82;;;2.70;99.90;;;;;;5070166;28;20177;-61
2023/01/26 08:10:11;;;;;;;35.53;4.90;;;2.70;99.90;;;;;;5075367;28;20035;-61
2023/01/26 08:12:37;;;;;;;40.00;5.60;;;2.70;99.90;;;;;;5076386;28;20146;-61
2023/01/26 08:15:03;;;;;;;37.50;4.55;;;2.70;99.90;;;;;;5093636;28;20172;-61
2023/01/26 08:17:29;;;;;;;37.45;4.53;;;2.60;99.90;;;;;;5060593;28;20052;-61
2023/01/26 08:19:55;;;;;;;30.75;4.35;;;2.60;99.90;;;;;;5078043;28;20071;-61
2023/01/26 08:22:21;;;;;;;46.97;5.40;;;2.60;99.90;;;;;;5048767;28;20488;-61
2023/01/26 08:24:47;;;;;;;50.17;4.88;;;2.70;99.90;;;;;;5066424;28;20040;-61
2023/01/26 08:27:14;;;;;;;30.58;4.53;;;2.60;99.90;;;;;;5065269;28;20096;-61
2023/01/26 08:29:40;;;;;;;43.75;4.75;;;2.70;99.90;;;;;;5067591;28;20039;-61
2023/01/26 08:32:07;;;;;;;39.40;4.18;;;2.70;99.90;;;;;;5050205;28;20086;-61
2023/01/26 08:34:32;;;;;;;39.95;4.80;;;2.70;99.90;;;;;;5064229;28;20046;-61
2023/01/26 08:36:58;;;;;;;37.05;5.05;;;2.70;99.90;;;;;;5063313;28;20044;-61
2023/01/26 08:39:24;;;;;;;24.17;3.47;;;2.70;99.90;;;;;;5082345;28;20532;-62
2023/01/26 08:41:50;;;;;;;43.60;5.18;;;2.70;99.90;;;;;;5083803;28;20035;-62
2023/01/26 08:44:15;;;;;;;41.92;4.95;;;2.70;99.90;;;;;;5067395;28;20458;-62
2023/01/26 08:46:43;;;;;;;50.20;4.53;;;2.80;99.90;;;;;;5067993;28;20047;-61
2023/01/26 08:49:09;;;;;;;35.33;4.43;;;2.80;99.90;;;;;;5071381;28;20047;-62
2023/01/26 08:51:35;;;;;;;38.65;4.53;;;2.80;99.90;;;;;;5076012;28;20530;-61
2023/01/26 08:54:00;;;;;;;41.35;4.63;;;2.80;99.90;;;;;;5046368;28;20039;-62
2023/01/26 08:56:26;;;;;;;41.00;4.30;;;2.90;99.90;;;;;;5081038;28;20505;-61
2023/01/26 08:58:52;;;;;;;42.80;4.90;;;2.90;99.90;;;;;;5065279;28;20047;-62
2023/01/26 09:01:18;;;;;;;33.42;4.13;;;2.90;99.90;;;;;;5048531;28;20044;-61
2023/01/26 09:03:44;;;;;;;31.90;4.53;;;3.00;99.90;;;;;;5054993;28;20060;-61
2023/01/26 09:06:12;;;;;;;33.53;4.63;;;3.10;99.90;;;;;;5051465;28;20047;-62
2023/01/26 09:08:38;;;;;;;47.45;5.15;;;3.20;99.90;;;;;;5064452;28;20101;-62
2023/01/26 09:11:07;;;;;;;48.67;4.72;;;3.30;99.90;;;;;;5049429;28;20489;-62
2023/01/26 09:13:33;;;;;;;44.92;5.68;;;3.40;99.90;;;;;;5061225;28;20050;-62
2023/01/26 09:16:03;;;;;;;42.97;4.78;;;3.60;99.90;;;;;;5083932;28;20039;-61
2023/01/26 09:18:29;;;;;;;48.42;5.13;;;3.70;99.90;;;;;;5072612;28;20040;-61
2023/01/26 09:21:00;;;;;;;49.83;5.38;;;3.80;99.90;;;;;;5056230;28;20065;-61
2023/01/26 09:23:26;;;;;;;57.28;5.28;;;3.90;99.90;;;;;;5084166;28;20093;-62
2023/01/26 09:25:52;;;;;;;33.67;4.03;;;4.10;99.90;;;;;;5063588;28;20230;-61
2023/01/26 09:28:18;;;;;;;47.00;4.50;;;4.20;99.90;;;;;;5064447;28;20055;-61
2023/01/26 09:30:44;;;;;;;45.28;4.97;;;4.30;99.90;;;;;;5070118;28;20482;-62
2023/01/26 09:33:09;;;;;;;59.70;5.78;;;4.40;99.90;;;;;;5051153;28;20427;-61
2023/01/26 09:35:35;;;;;;;38.45;4.47;;;4.60;99.90;;;;;;5083870;27;20039;-61
2023/01/26 09:38:01;;;;;;;116.15;8.18;;;4.70;99.90;;;;;;5023726;28;20136;-61
2023/01/26 09:40:49;;;;;;;52.78;5.95;;;4.80;99.90;;;;;;5050869;28;20047;-62
2023/01/26 09:43:40;;;;;;;40.83;5.88;;;4.90;99.90;;;;;;5053261;28;20040;-62
2023/01/26 09:46:53;;;;;;;41.63;5.60;;;5.00;99.90;;;;;;5051577;28;20122;-61
2023/01/26 09:49:25;;;;;;;43.17;4.88;;;5.10;99.90;;;;;;4976006;28;20167;-61
2023/01/26 09:52:05;;;;;;;49.42;6.43;;;5.20;99.90;;;;;;4977255;28;20089;-63
2023/01/26 09:54:48;;;;;;;47.85;5.78;;;5.30;99.90;;;;;;5048534;28;20074;-62
2023/01/26 09:57:17;;;;;;;53.03;6.63;;;5.40;99.90;;;;;;5057091;28;20442;-61
2023/01/26 09:59:49;;;;;;;71.40;6.30;;;5.60;99.90;;;;;;5064864;28;21471;-62
2023/01/26 10:02:27;;;;;;;41.23;4.77;;;5.80;99.90;;;;;;5053903;28;20052;-61
2023/01/26 10:04:57;;;;;;;46.53;5.47;;;5.90;99.90;;;;;;5073183;28;20044;-62
2023/01/26 10:07:23;;;;;;;38.05;5.47;;;6.10;99.90;;;;;;5052723;28;20205;-62
2023/01/26 10:09:52;;;;;;;44.75;4.75;;;6.30;99.90;;;;;;5045671;28;20580;-61
2023/01/26 10:12:29;;;;;;;43.63;5.03;;;6.40;99.90;;;;;;5065864;28;20076;-61
2023/01/26 10:15:17;;;;;;;46.03;5.70;;;6.50;99.90;;;;;;5067341;28;20052;-62
2023/01/26 10:17:45;;;;;;;34.38;4.53;;;6.60;99.90;;;;;;5052478;28;20107;-62
2023/01/26 10:20:30;;;;;;;36.38;5.32;;;6.60;99.90;;;;;;5057568;28;20097;-61
2023/01/26 10:23:05;;;;;;;36.28;5.25;;;6.60;99.90;;;;;;5066332;28;20040;-61
2023/01/26 10:25:40;;;;;;;38.70;5.00;;;6.60;99.90;;;;;;5064076;28;20047;-61
2023/01/26 10:28:18;;;;;;;36.00;4.65;;;6.70;99.90;;;;;;5066430;28;20121;-62
2023/01/26 10:30:46;;;;;;;37.25;4.50;;;6.90;99.90;;;;;;5067141;28;20118;-63
2023/01/26 10:33:33;;;;;;;40.13;4.25;;;7.00;99.90;;;;;;5067722;28;20044;-61
2023/01/26 10:36:00;;;;;;;36.22;4.70;;;7.10;99.90;;;;;;5059236;28;20058;-61
2023/01/26 10:38:32;;;;;;;30.02;5.20;;;7.20;99.90;;;;;;5058408;28;20090;-61
2023/01/26 10:41:03;;;;;;;33.30;4.80;;;7.30;99.90;;;;;;5065209;28;20462;-62
2023/01/26 10:43:39;;;;;;;37.10;4.25;;;7.40;99.90;;;;;;5064520;28;20132;-62
2023/01/26 10:46:05;;;;;;;41.92;4.95;;;7.50;99.90;;;;;;5055635;28;20165;-61
2023/01/26 10:48:31;;;;;;;29.35;4.90;;;7.40;99.90;;;;;;5053483;28;20055;-61
2023/01/26 10:51:15;;;;;;;35.38;4.57;;;7.50;99.90;;;;;;5065221;28;20493;-61
2023/01/26 10:53:41;;;;;;;34.58;4.72;;;7.50;99.90;;;;;;5064814;28;20040;-62
2023/01/26 10:56:15;;;;;;;36.17;4.53;;;7.60;99.90;;;;;;5064437;28;20044;-61
2023/01/26 10:58:56;;;;;;;32.80;4.88;;;7.70;99.90;;;;;;5066877;28;21743;-62
2023/01/26 11:01:26;;;;;;;34.35;4.55;;;7.90;99.90;;;;;;5069949;28;20071;-61
2023/01/26 11:04:11;;;;;;;34.42;4.28;;;7.90;99.90;;;;;;5057556;28;20044;-61
2023/01/26 11:06:37;;;;;;;35.78;4.20;;;8.00;99.90;;;;;;5070421;28;20552;-62
2023/01/26 11:09:27;;;;;;;22.38;3.38;;;8.00;99.90;;;;;;5071196;28;20406;-62
2023/01/26 11:12:06;;;;;;;26.55;3.67;;;8.10;99.90;;;;;;5068885;28;20062;-62
2023/01/26 11:14:33;;;;;;;31.80;4.47;;;8.30;99.90;;;;;;5083529;28;20040;-61
2023/01/26 11:17:23;;;;;;;29.27;3.45;;;8.40;99.90;;;;;;5067864;28;20092;-61
2023/01/26 11:20:00;;;;;;;25.35;3.65;;;8.50;99.90;;;;;;5069540;28;21052;-61
2023/01/26 11:22:52;;;;;;;28.42;3.78;;;8.60;99.90;;;;;;5068885;28;20075;-61
2023/01/26 11:25:45;;;;;;;22.52;3.58;;;8.70;99.90;;;;;;5050328;28;20112;-61
2023/01/26 11:28:17;;;;;;;19.85;3.10;;;8.80;99.90;;;;;;5069830;28;20157;-61
2023/01/26 11:31:02;;;;;;;22.13;2.90;;;8.70;99.90;;;;;;5056692;28;20111;-62
2023/01/26 11:33:42;;;;;;;16.65;2.88;;;8.70;99.90;;;;;;5071192;28;20050;-61
2023/01/26 11:36:17;;;;;;;20.33;3.22;;;8.60;99.90;;;;;;5086753;28;20035;-62
2023/01/26 11:39:09;;;;;;;21.42;3.45;;;8.60;99.90;;;;;;5058061;28;21581;-62
2023/01/26 11:41:48;;;;;;;24.85;3.53;;;8.50;99.90;;;;;;5068747;28;20501;-61
2023/01/26 11:44:17;;;;;;;20.63;3.33;;;8.40;99.90;;;;;;5069502;28;20595;-62
2023/01/26 11:47:18;;;;;;;22.90;4.35;;;8.40;99.90;;;;;;5068393;28;20040;-62
2023/01/26 11:50:22;;;;;;;28.77;3.35;;;8.30;99.90;;;;;;5069484;28;20178;-61
2023/01/26 11:53:09;;;;;;;20.70;3.30;;;8.30;99.90;;;;;;5058753;28;20063;-60
2023/01/26 11:56:02;;;;;;;30.08;4.13;;;8.20;99.90;;;;;;5068516;28;20154;-61
2023/01/26 11:58:40;;;;;;;24.27;4.18;;;8.20;99.90;;;;;;5067401;28;20108;-62
2023/01/26 12:01:14;;;;;;;25.13;3.42;;;8.20;99.90;;;;;;5082870;28;20039;-61
2023/01/26 12:03:51;;;;;;;26.15;4.68;;;8.10;99.90;;;;;;5084017;28;20044;-60
2023/01/26 12:06:36;;;;;;;17.45;3.53;;;8.10;99.90;;;;;;5077019;28;20052;-62
2023/01/26 12:09:10;;;;;;;31.33;3.92;;;8.10;99.90;;;;;;5067281;28;20502;-60
2023/01/26 12:11:44;;;;;;;22.95;3.80;;;8.10;99.90;;;;;;5069643;28;20051;-60
2023/01/26 12:14:19;;;;;;;26.05;3.20;;;8.10;99.90;;;;;;5066770;28;20069;-60
2023/01/26 12:17:01;;;;;;;23.60;3.50;;;8.10;99.90;;;;;;5059449;28;20043;-61
2023/01/26 12:19:40;;;;;;;23.13;3.40;;;8.10;99.90;;;;;;5069854;28;20119;-61
2023/01/26 12:22:25;;;;;;;23.58;3.55;;;8.10;99.90;;;;;;5069731;28;20301;-62
2023/01/26 12:25:02;;;;;;;24.17;3.58;;;8.00;99.90;;;;;;5065936;28;20062;-61
2023/01/26 12:27:34;;;;;;;36.85;3.50;;;8.00;99.90;;;;;;5070022;28;20161;-61
2023/01/26 12:30:21;;;;;;;11.67;2.17;;;8.00;99.90;;;;;;5051830;28;20048;-60
2023/01/26 12:32:46;;;;;;;13.52;2.55;;;8.00;99.90;;;;;;5067343;28;20126;-59
2023/01/26 12:35:12;;;;;;;20.42;2.55;;;8.00;99.90;;;;;;5065057;28;20044;-62
2023/01/26 12:37:55;;;;;;;16.58;2.38;;;8.00;99.90;;;;;;5088305;28;20051;-62
2023/01/26 12:40:44;;;;;;;14.60;2.28;;;8.00;99.90;;;;;;5076304;28;20595;-62
2023/01/26 12:43:45;;;;;;;16.92;2.30;;;8.00;99.90;;;;;;5055341;28;20172;-60
2023/01/26 12:46:12;;;;;;;14.52;2.30;;;8.00;99.90;;;;;;5048047;28;20056;-61
2023/01/26 12:48:54;;;;;;;20.17;2.55;;;7.90;99.90;;;;;;5066679;28;20063;-60
2023/01/26 12:51:28;;;;;;;11.70;1.83;;;7.90;99.90;;;;;;5077312;28;20052;-60
2023/01/26 12:53:59;;;;;;;16.52;2.67;;;7.90;99.90;;;;;;5078513;28;20044;-60
2023/01/26 12:56:49;;;;;;;14.38;2.78;;;7.90;99.90;;;;;;5048516;28;20061;-60
2023/01/26 12:59:30;;;;;;;10.20;2.17;;;7.90;99.90;;;;;;5068627;28;20073;-60
2023/01/26 13:01:56;;;;;;;15.02;2.35;;;7.90;99.90;;;;;;5073383;28;20040;-62
2023/01/26 13:04:22;;;;;;;18.65;2.25;;;7.90;99.90;;;;;;5059281;28;20108;-60
2023/01/26 13:07:23;;;;;;;18.98;2.20;;;7.90;99.90;;;;;;5056055;28;20195;-60
2023/01/26 13:10:23;;;;;;;10.13;1.83;;;7.90;99.90;;;;;;5082236;28;20056;-60
2023/01/26 13:12:57;;;;;;;13.85;2.22;;;7.90;99.90;;;;;;5022512;28;20675;-61
2023/01/26 13:15:30;;;;;;;15.18;2.47;;;7.80;99.90;;;;;;5080665;28;20494;-60
2023/01/26 13:18:01;;;;;;;15.50;2.35;;;7.80;99.90;;;;;;5064877;28;20116;-60
2023/01/26 13:20:39;;;;;;;13.50;2.17;;;7.80;99.90;;;;;;5054634;28;20127;-62
2023/01/26 13:23:41;;;;;;;20.30;2.50;;;7.80;99.90;;;;;;5057315;28;20480;-60
2023/01/26 13:26:16;;;;;;;16.52;3.40;;;7.70;99.90;;;;;;5050917;28;20044;-61
2023/01/26 13:28:43;;;;;;;13.57;2.45;;;7.70;99.90;;;;;;5073725;27;20053;-62
2023/01/26 13:31:10;;;;;;;17.52;2.55;;;7.70;99.90;;;;;;5062169;28;20040;-62
2023/01/26 13:33:36;;;;;;;18.58;2.78;;;7.70;99.90;;;;;;5041016;28;20063;-62
2023/01/26 13:36:10;;;;;;;20.40;2.15;;;7.60;99.90;;;;;;5054492;28;20174;-60
2023/01/26 13:38:41;;;;;;;26.92;3.20;;;7.60;99.90;;;;;;5073257;28;20474;-61
2023/01/26 13:41:12;;;;;;;18.00;3.10;;;7.60;99.90;;;;;;5053536;28;20048;-61